sensor_id;sensor_type;location;lat;lon;timestamp;P1;durP1;ratioP1;P2;durP2;ratioP2
39698;SDS011;25372;50.582;12.250;2023-09-07T00:00:53;5.65;;;3.13;;
39698;SDS011;25372;50.582;12.250;2023-09-07T00:11:14;6.90;;;4.07;;
39698;SDS011;25372;50.582;12.250;2023-09-07T00:21:36;5.97;;;3.95;;
39698;SDS011;25372;50.582;12.250;2023-09-07T00:31:57;4.50;;;2.80;;
39698;SDS011;25372;50.582;12.250;2023-09-07T00:42:19;4.38;;;3.10;;
39698;SDS011;25372;50.582;12.250;2023-09-07T00:52:40;7.60;;;3.70;;
39698;SDS011;25372;50.582;12.250;2023-09-07T01:03:04;5.78;;;3.03;;
39698;SDS011;25372;50.582;12.250;2023-09-07T01:13:25;6.95;;;3.75;;
39698;SDS011;25372;50.582;12.250;2023-09-07T01:23:48;7.35;;;4.30;;
39698;SDS011;25372;50.582;12.250;2023-09-07T01:34:10;9.93;;;4.63;;
39698;SDS011;25372;50.582;12.250;2023-09-07T01:44:32;11.18;;;5.72;;
39698;SDS011;25372;50.582;12.250;2023-09-07T01:54:55;9.80;;;5.00;;
39698;SDS011;25372;50.582;12.250;2023-09-07T02:05:17;6.85;;;3.53;;
39698;SDS011;25372;50.582;12.250;2023-09-07T02:15:38;6.15;;;3.58;;
39698;SDS011;25372;50.582;12.250;2023-09-07T02:26:01;9.07;;;4.47;;
39698;SDS011;25372;50.582;12.250;2023-09-07T02:36:23;7.07;;;4.57;;
39698;SDS011;25372;50.582;12.250;2023-09-07T02:46:45;5.80;;;3.70;;
39698;SDS011;25372;50.582;12.250;2023-09-07T02:57:07;10.25;;;5.32;;
39698;SDS011;25372;50.582;12.250;2023-09-07T03:07:32;13.07;;;5.38;;
39698;SDS011;25372;50.582;12.250;2023-09-07T03:17:54;10.93;;;5.78;;
39698;SDS011;25372;50.582;12.250;2023-09-07T03:28:16;8.02;;;4.95;;
39698;SDS011;25372;50.582;12.250;2023-09-07T03:38:39;12.80;;;4.23;;
39698;SDS011;25372;50.582;12.250;2023-09-07T03:49:01;7.07;;;4.00;;
39698;SDS011;25372;50.582;12.250;2023-09-07T03:59:22;8.07;;;3.38;;
39698;SDS011;25372;50.582;12.250;2023-09-07T04:09:45;6.10;;;3.47;;
39698;SDS011;25372;50.582;12.250;2023-09-07T04:20:07;4.97;;;3.63;;
39698;SDS011;25372;50.582;12.250;2023-09-07T04:30:32;8.63;;;4.30;;
39698;SDS011;25372;50.582;12.250;2023-09-07T04:41:04;12.00;;;5.53;;
39698;SDS011;25372;50.582;12.250;2023-09-07T04:51:27;14.27;;;5.38;;
39698;SDS011;25372;50.582;12.250;2023-09-07T05:01:49;10.35;;;4.75;;
39698;SDS011;25372;50.582;12.250;2023-09-07T05:12:11;10.30;;;4.88;;
39698;SDS011;25372;50.582;12.250;2023-09-07T05:22:33;10.90;;;4.55;;
39698;SDS011;25372;50.582;12.250;2023-09-07T05:32:58;8.43;;;4.90;;
39698;SDS011;25372;50.582;12.250;2023-09-07T05:43:20;10.85;;;5.18;;
39698;SDS011;25372;50.582;12.250;2023-09-07T05:53:42;7.97;;;4.85;;
39698;SDS011;25372;50.582;12.250;2023-09-07T06:04:03;7.50;;;3.47;;
39698;SDS011;25372;50.582;12.250;2023-09-07T06:14:26;9.52;;;3.97;;
39698;SDS011;25372;50.582;12.250;2023-09-07T06:24:47;4.47;;;3.10;;
39698;SDS011;25372;50.582;12.250;2023-09-07T06:35:09;6.47;;;3.45;;
39698;SDS011;25372;50.582;12.250;2023-09-07T06:45:33;4.43;;;3.00;;
39698;SDS011;25372;50.582;12.250;2023-09-07T06:55:58;5.72;;;2.60;;
39698;SDS011;25372;50.582;12.250;2023-09-07T07:06:19;5.38;;;3.38;;
39698;SDS011;25372;50.582;12.250;2023-09-07T07:16:42;3.60;;;2.55;;
39698;SDS011;25372;50.582;12.250;2023-09-07T07:27:03;3.28;;;2.35;;
39698;SDS011;25372;50.582;12.250;2023-09-07T07:37:28;6.90;;;2.35;;
39698;SDS011;25372;50.582;12.250;2023-09-07T07:47:49;4.55;;;2.83;;
39698;SDS011;25372;50.582;12.250;2023-09-07T07:58:12;3.97;;;2.72;;
39698;SDS011;25372;50.582;12.250;2023-09-07T08:08:34;6.10;;;3.33;;
39698;SDS011;25372;50.582;12.250;2023-09-07T08:18:57;4.45;;;2.63;;
39698;SDS011;25372;50.582;12.250;2023-09-07T08:29:18;4.57;;;2.47;;
39698;SDS011;25372;50.582;12.250;2023-09-07T08:39:41;4.72;;;2.72;;
39698;SDS011;25372;50.582;12.250;2023-09-07T08:50:02;4.80;;;2.15;;
39698;SDS011;25372;50.582;12.250;2023-09-07T09:00:24;3.67;;;2.10;;
39698;SDS011;25372;50.582;12.250;2023-09-07T09:10:45;1.77;;;1.60;;
39698;SDS011;25372;50.582;12.250;2023-09-07T09:21:07;3.47;;;1.85;;
39698;SDS011;25372;50.582;12.250;2023-09-07T09:31:28;3.10;;;2.15;;
39698;SDS011;25372;50.582;12.250;2023-09-07T09:41:51;6.03;;;3.08;;
39698;SDS011;25372;50.582;12.250;2023-09-07T09:52:12;3.67;;;2.05;;
39698;SDS011;25372;50.582;12.250;2023-09-07T10:02:36;3.25;;;2.22;;
39698;SDS011;25372;50.582;12.250;2023-09-07T10:12:59;4.13;;;2.33;;
39698;SDS011;25372;50.582;12.250;2023-09-07T10:23:21;2.88;;;1.83;;
39698;SDS011;25372;50.582;12.250;2023-09-07T10:33:44;5.87;;;2.60;;
39698;SDS011;25372;50.582;12.250;2023-09-07T10:44:07;6.18;;;1.73;;
39698;SDS011;25372;50.582;12.250;2023-09-07T10:54:30;3.77;;;1.93;;
39698;SDS011;25372;50.582;12.250;2023-09-07T11:04:52;2.35;;;1.65;;
39698;SDS011;25372;50.582;12.250;2023-09-07T11:15:13;3.22;;;2.05;;
39698;SDS011;25372;50.582;12.250;2023-09-07T11:25:36;1.80;;;1.55;;
39698;SDS011;25372;50.582;12.250;2023-09-07T11:35:57;2.90;;;2.20;;
39698;SDS011;25372;50.582;12.250;2023-09-07T11:46:19;4.70;;;1.92;;
39698;SDS011;25372;50.582;12.250;2023-09-07T11:56:40;3.97;;;1.98;;
39698;SDS011;25372;50.582;12.250;2023-09-07T12:07:04;3.60;;;1.77;;
39698;SDS011;25372;50.582;12.250;2023-09-07T12:17:25;1.75;;;1.58;;
39698;SDS011;25372;50.582;12.250;2023-09-07T12:27:47;4.15;;;2.08;;
39698;SDS011;25372;50.582;12.250;2023-09-07T12:38:09;3.23;;;2.40;;
39698;SDS011;25372;50.582;12.250;2023-09-07T12:48:35;6.00;;;2.85;;
39698;SDS011;25372;50.582;12.250;2023-09-07T12:58:56;2.28;;;1.80;;
39698;SDS011;25372;50.582;12.250;2023-09-07T13:09:20;3.95;;;2.08;;
39698;SDS011;25372;50.582;12.250;2023-09-07T13:19:41;3.05;;;1.80;;
39698;SDS011;25372;50.582;12.250;2023-09-07T13:30:03;4.03;;;1.83;;
39698;SDS011;25372;50.582;12.250;2023-09-07T13:40:25;3.80;;;2.17;;
39698;SDS011;25372;50.582;12.250;2023-09-07T13:50:50;1.67;;;1.43;;
39698;SDS011;25372;50.582;12.250;2023-09-07T14:01:11;2.13;;;1.92;;
39698;SDS011;25372;50.582;12.250;2023-09-07T14:11:33;2.65;;;1.70;;
39698;SDS011;25372;50.582;12.250;2023-09-07T14:21:54;2.50;;;1.80;;
39698;SDS011;25372;50.582;12.250;2023-09-07T14:32:16;3.00;;;2.60;;
39698;SDS011;25372;50.582;12.250;2023-09-07T14:42:37;2.45;;;1.48;;
39698;SDS011;25372;50.582;12.250;2023-09-07T14:52:59;4.38;;;1.70;;
39698;SDS011;25372;50.582;12.250;2023-09-07T15:03:20;3.85;;;1.30;;
39698;SDS011;25372;50.582;12.250;2023-09-07T15:13:42;3.53;;;1.75;;
39698;SDS011;25372;50.582;12.250;2023-09-07T15:24:05;2.53;;;1.98;;
39698;SDS011;25372;50.582;12.250;2023-09-07T15:34:27;2.50;;;1.65;;
39698;SDS011;25372;50.582;12.250;2023-09-07T15:44:48;2.42;;;1.55;;
39698;SDS011;25372;50.582;12.250;2023-09-07T15:55:10;3.45;;;1.88;;
39698;SDS011;25372;50.582;12.250;2023-09-07T16:05:31;1.85;;;1.40;;
39698;SDS011;25372;50.582;12.250;2023-09-07T16:15:53;4.82;;;1.52;;
39698;SDS011;25372;50.582;12.250;2023-09-07T16:26:14;1.83;;;1.25;;
39698;SDS011;25372;50.582;12.250;2023-09-07T16:36:36;2.08;;;1.30;;
39698;SDS011;25372;50.582;12.250;2023-09-07T16:46:57;3.10;;;1.65;;
39698;SDS011;25372;50.582;12.250;2023-09-07T16:57:19;4.20;;;1.50;;
39698;SDS011;25372;50.582;12.250;2023-09-07T17:07:40;4.50;;;2.30;;
39698;SDS011;25372;50.582;12.250;2023-09-07T17:18:02;5.53;;;2.35;;
39698;SDS011;25372;50.582;12.250;2023-09-07T17:28:23;4.10;;;2.38;;
39698;SDS011;25372;50.582;12.250;2023-09-07T17:38:46;7.53;;;2.03;;
39698;SDS011;25372;50.582;12.250;2023-09-07T17:49:07;6.10;;;2.28;;
39698;SDS011;25372;50.582;12.250;2023-09-07T17:59:29;4.53;;;2.10;;
39698;SDS011;25372;50.582;12.250;2023-09-07T18:09:50;3.58;;;2.15;;
39698;SDS011;25372;50.582;12.250;2023-09-07T18:20:13;5.47;;;2.80;;
39698;SDS011;25372;50.582;12.250;2023-09-07T18:30:34;5.07;;;3.03;;
39698;SDS011;25372;50.582;12.250;2023-09-07T18:40:59;3.38;;;1.98;;
39698;SDS011;25372;50.582;12.250;2023-09-07T18:51:21;2.85;;;2.10;;
39698;SDS011;25372;50.582;12.250;2023-09-07T19:01:43;3.83;;;2.30;;
39698;SDS011;25372;50.582;12.250;2023-09-07T19:12:08;7.15;;;3.33;;
39698;SDS011;25372;50.582;12.250;2023-09-07T19:22:30;5.40;;;2.88;;
39698;SDS011;25372;50.582;12.250;2023-09-07T19:32:52;4.43;;;2.35;;
39698;SDS011;25372;50.582;12.250;2023-09-07T19:43:14;5.40;;;2.92;;
39698;SDS011;25372;50.582;12.250;2023-09-07T19:53:35;4.30;;;2.35;;
39698;SDS011;25372;50.582;12.250;2023-09-07T20:03:57;4.53;;;2.20;;
39698;SDS011;25372;50.582;12.250;2023-09-07T20:14:18;4.35;;;2.35;;
39698;SDS011;25372;50.582;12.250;2023-09-07T20:24:40;5.28;;;2.60;;
39698;SDS011;25372;50.582;12.250;2023-09-07T20:35:02;3.03;;;2.25;;
39698;SDS011;25372;50.582;12.250;2023-09-07T20:45:27;6.53;;;3.08;;
39698;SDS011;25372;50.582;12.250;2023-09-07T20:55:48;6.03;;;2.50;;
39698;SDS011;25372;50.582;12.250;2023-09-07T21:06:10;4.68;;;2.67;;
39698;SDS011;25372;50.582;12.250;2023-09-07T21:16:31;4.80;;;2.40;;
39698;SDS011;25372;50.582;12.250;2023-09-07T21:26:53;3.95;;;2.58;;
39698;SDS011;25372;50.582;12.250;2023-09-07T21:37:14;6.88;;;3.10;;
39698;SDS011;25372;50.582;12.250;2023-09-07T21:47:36;3.50;;;2.63;;
39698;SDS011;25372;50.582;12.250;2023-09-07T21:57:57;6.20;;;3.45;;
39698;SDS011;25372;50.582;12.250;2023-09-07T22:08:19;4.18;;;2.65;;
39698;SDS011;25372;50.582;12.250;2023-09-07T22:18:40;5.13;;;3.45;;
39698;SDS011;25372;50.582;12.250;2023-09-07T22:29:03;11.75;;;4.97;;
39698;SDS011;25372;50.582;12.250;2023-09-07T22:39:23;13.35;;;5.22;;
39698;SDS011;25372;50.582;12.250;2023-09-07T22:49:46;10.20;;;4.30;;
39698;SDS011;25372;50.582;12.250;2023-09-07T23:00:07;8.30;;;3.55;;
39698;SDS011;25372;50.582;12.250;2023-09-07T23:10:31;6.75;;;3.50;;
39698;SDS011;25372;50.582;12.250;2023-09-07T23:20:53;5.90;;;2.88;;
39698;SDS011;25372;50.582;12.250;2023-09-07T23:31:17;4.90;;;2.63;;
39698;SDS011;25372;50.582;12.250;2023-09-07T23:41:40;3.40;;;2.30;;
39698;SDS011;25372;50.582;12.250;2023-09-07T23:52:03;5.30;;;2.75;;
